createdAt,value
2018-05-25T00:02:12.687Z,50.90
2018-05-25T00:04:41.015Z,50.33
2018-05-25T00:07:09.380Z,52.70
2018-05-25T00:09:37.692Z,48.53
2018-05-25T00:12:06.789Z,55.23
2018-05-25T00:14:35.854Z,52.07
2018-05-25T00:17:04.154Z,51.93
2018-05-25T00:19:33.298Z,51.93
2018-05-25T00:22:01.805Z,55.37
2018-05-25T00:24:30.258Z,54.43
2018-05-25T00:26:58.594Z,56.70
2018-05-25T00:29:27.935Z,60.67
2018-05-25T00:31:56.231Z,57.73
2018-05-25T00:34:24.949Z,56.20
2018-05-25T00:36:53.262Z,54.80
2018-05-25T00:39:21.576Z,52.07
2018-05-25T00:41:49.915Z,54.27
2018-05-25T00:44:18.221Z,54.77
2018-05-25T00:46:46.541Z,55.67
2018-05-25T00:49:14.874Z,57.73
2018-05-25T00:51:43.197Z,61.33
2018-05-25T00:54:11.510Z,64.03
2018-05-25T00:56:39.828Z,61.73
2018-05-25T00:59:08.225Z,66.97
2018-05-25T01:01:36.521Z,66.80
2018-05-25T01:04:05.596Z,68.40
2018-05-25T01:06:33.890Z,67.80
2018-05-25T01:09:02.944Z,70.40
2018-05-25T01:11:31.253Z,69.70
2018-05-25T01:13:59.537Z,67.77
2018-05-25T01:16:28.910Z,66.90
2018-05-25T01:18:57.204Z,62.90
2018-05-25T01:21:25.504Z,62.23
2018-05-25T01:23:54.569Z,61.70
2018-05-25T01:26:22.873Z,57.73
2018-05-25T01:28:51.918Z,55.43
2018-05-25T01:31:20.895Z,54.27
2018-05-25T01:33:49.234Z,52.37
2018-05-25T01:36:18.287Z,51.43
2018-05-25T01:38:46.597Z,49.37
2018-05-25T01:41:14.912Z,49.27
2018-05-25T01:43:43.239Z,50.53
2018-05-25T01:46:11.556Z,50.60
2018-05-25T01:48:40.691Z,46.27
2018-05-25T01:51:09.718Z,45.03
2018-05-25T01:53:38.127Z,45.30
2018-05-25T01:56:07.266Z,43.17
2018-05-25T01:58:36.402Z,46.50
2018-05-25T02:01:05.538Z,41.70
2018-05-25T02:03:34.307Z,41.87
2018-05-25T02:06:02.735Z,39.60
2018-05-25T02:08:32.180Z,38.53
2018-05-25T02:11:01.264Z,38.73
2018-05-25T02:13:29.581Z,38.23
2018-05-25T02:15:58.095Z,42.80
2018-05-25T02:18:26.480Z,40.43
2018-05-25T02:20:55.569Z,42.43
2018-05-25T02:23:23.896Z,43.17
2018-05-25T02:25:52.989Z,42.80
2018-05-25T02:28:22.167Z,43.80
2018-05-25T02:30:50.518Z,41.50
2018-05-25T02:33:18.837Z,39.90
2018-05-25T02:35:47.934Z,42.33
2018-05-25T02:38:17.005Z,43.67
2018-05-25T02:40:45.316Z,42.43
2018-05-25T02:43:14.412Z,41.57
2018-05-25T02:45:43.473Z,44.10
2018-05-25T02:48:11.768Z,48.90
2018-05-25T02:50:40.202Z,46.37
2018-05-25T02:53:08.503Z,48.37
2018-05-25T02:55:37.264Z,49.47
2018-05-25T02:58:05.550Z,49.93
2018-05-25T03:00:33.885Z,51.23
2018-05-25T03:03:02.955Z,50.13
2018-05-25T03:05:31.273Z,49.83
2018-05-25T03:08:00.337Z,52.03
2018-05-25T03:10:29.432Z,52.77
2018-05-25T03:12:57.720Z,52.67
2018-05-25T03:15:26.800Z,52.63
2018-05-25T03:17:55.089Z,51.43
2018-05-25T03:20:24.196Z,50.80
2018-05-25T03:22:53.340Z,52.30
2018-05-25T03:25:21.653Z,49.67
2018-05-25T03:27:49.974Z,50.93
2018-05-25T03:30:18.290Z,48.07
2018-05-25T03:32:46.606Z,48.97
2018-05-25T03:35:15.654Z,50.47
2018-05-25T03:37:44.776Z,44.83
2018-05-25T03:40:13.098Z,45.03
2018-05-25T03:42:41.830Z,48.37
2018-05-25T03:45:10.148Z,49.10
2018-05-25T03:47:39.358Z,48.10
2018-05-25T03:50:07.810Z,47.57
2018-05-25T03:52:36.937Z,50.07
2018-05-25T03:55:05.284Z,52.83
2018-05-25T03:57:34.500Z,52.40
2018-05-25T04:00:21.331Z,53.17
2018-05-25T04:02:49.661Z,54.73
2018-05-25T04:05:18.017Z,51.20
2018-05-25T04:07:46.428Z,51.83
2018-05-25T04:10:14.853Z,51.00
2018-05-25T04:12:44.448Z,47.23
2018-05-25T04:15:12.747Z,46.07
2018-05-25T04:17:41.043Z,44.70
2018-05-25T04:20:09.356Z,46.77
2018-05-25T04:22:38.410Z,45.00
2018-05-25T04:25:06.751Z,45.13
2018-05-25T04:27:35.045Z,44.30
2018-05-25T04:30:03.394Z,41.03
2018-05-25T04:32:32.456Z,41.50
2018-05-25T04:35:00.785Z,42.43
2018-05-25T04:37:29.103Z,40.63
2018-05-25T04:39:57.410Z,41.73
2018-05-25T04:42:26.476Z,41.50
2018-05-25T04:44:54.772Z,43.93
2018-05-25T04:47:23.200Z,42.30
2018-05-25T04:49:51.481Z,43.23
2018-05-25T04:52:19.811Z,40.97
2018-05-25T04:54:48.076Z,41.90
2018-05-25T04:57:16.376Z,38.73
2018-05-25T04:59:45.731Z,38.60
2018-05-25T05:02:14.052Z,39.03
2018-05-25T05:04:43.071Z,38.50
2018-05-25T05:07:11.394Z,39.00
2018-05-25T05:09:39.716Z,39.47
2018-05-25T05:12:08.862Z,37.63
2018-05-25T05:14:37.288Z,36.10
2018-05-25T05:17:05.612Z,34.30
2018-05-25T05:19:33.990Z,34.10
2018-05-25T05:22:02.276Z,32.03
2018-05-25T05:24:30.561Z,33.17
2018-05-25T05:26:59.630Z,32.03
2018-05-25T05:29:27.921Z,31.30
2018-05-25T05:31:56.248Z,31.30
2018-05-25T05:34:25.303Z,30.03
2018-05-25T05:36:53.608Z,28.93
2018-05-25T05:39:21.943Z,29.33
2018-05-25T05:41:50.535Z,27.57
2018-05-25T05:44:18.883Z,28.90
2018-05-25T05:46:47.192Z,27.80
2018-05-25T05:49:15.500Z,26.30
2018-05-25T05:51:43.832Z,26.10
2018-05-25T05:54:12.146Z,25.70
2018-05-25T05:56:40.601Z,25.97
2018-05-25T05:59:08.897Z,24.97
2018-05-25T06:01:37.220Z,26.07
2018-05-25T06:04:06.450Z,25.23
2018-05-25T06:06:34.745Z,26.27
2018-05-25T06:09:03.091Z,26.23
2018-05-25T06:11:31.389Z,25.60
2018-05-25T06:13:59.784Z,24.73
2018-05-25T06:16:28.077Z,24.67
2018-05-25T06:18:56.394Z,24.13
2018-05-25T06:21:24.669Z,24.50
2018-05-25T06:23:53.121Z,22.53
2018-05-25T06:26:21.421Z,24.80
2018-05-25T06:28:50.505Z,24.00
2018-05-25T06:31:19.605Z,22.97
2018-05-25T06:33:48.692Z,24.23
2018-05-25T06:36:16.991Z,23.30
2018-05-25T06:38:46.125Z,22.40
2018-05-25T06:41:14.443Z,23.43
2018-05-25T06:43:42.745Z,23.10
2018-05-25T06:46:12.275Z,23.13
2018-05-25T06:48:40.670Z,21.63
2018-05-25T06:51:08.997Z,20.23
2018-05-25T06:53:38.132Z,21.40
2018-05-25T06:56:06.499Z,23.10
2018-05-25T06:58:34.782Z,18.77
2018-05-25T07:01:03.132Z,17.73
2018-05-25T07:03:32.166Z,17.73
2018-05-25T07:06:00.467Z,15.90
2018-05-25T07:08:28.820Z,14.27
2018-05-25T07:10:57.413Z,15.83
2018-05-25T07:13:25.732Z,15.60
2018-05-25T07:15:54.793Z,15.37
2018-05-25T07:18:23.117Z,14.70
2018-05-25T07:20:52.253Z,16.23
2018-05-25T07:23:20.532Z,15.10
2018-05-25T07:25:48.841Z,15.07
2018-05-25T07:28:17.154Z,14.30
2018-05-25T07:30:46.330Z,13.80
2018-05-25T07:33:14.647Z,12.63
2018-05-25T07:35:42.941Z,12.60
2018-05-25T07:38:11.273Z,12.53
2018-05-25T07:40:40.322Z,12.43
2018-05-25T07:43:08.640Z,12.77
2018-05-25T07:45:38.456Z,13.23
2018-05-25T07:48:07.553Z,13.20
2018-05-25T07:50:36.753Z,14.23
2018-05-25T07:53:05.804Z,13.93
2018-05-25T07:55:34.160Z,13.67
2018-05-25T07:58:02.520Z,14.10
2018-05-25T08:00:31.637Z,13.73
2018-05-25T08:03:00.239Z,13.27
2018-05-25T08:05:28.537Z,13.33
2018-05-25T08:07:56.799Z,16.60
2018-05-25T08:10:25.150Z,13.13
2018-05-25T08:12:53.434Z,13.57
2018-05-25T08:15:21.773Z,12.23
2018-05-25T08:17:50.844Z,11.97
2018-05-25T08:20:19.160Z,11.33
2018-05-25T08:22:48.254Z,10.43
2018-05-25T08:25:17.335Z,10.13
2018-05-25T08:27:46.382Z,10.80
2018-05-25T08:30:14.756Z,10.03
2018-05-25T08:32:43.085Z,11.30
2018-05-25T08:35:12.205Z,10.87
2018-05-25T08:37:41.365Z,11.83
2018-05-25T08:40:09.650Z,12.73
2018-05-25T08:42:37.985Z,11.10
2018-05-25T08:45:06.628Z,11.07
2018-05-25T08:47:35.757Z,11.13
2018-05-25T08:50:04.082Z,11.80
2018-05-25T08:52:32.375Z,10.73
2018-05-25T08:55:01.468Z,12.30
2018-05-25T08:57:29.781Z,10.57
2018-05-25T08:59:58.065Z,10.77
2018-05-25T09:02:26.542Z,9.87
2018-05-25T09:04:54.830Z,10.30
2018-05-25T09:07:23.122Z,11.00
2018-05-25T09:09:51.437Z,9.33
2018-05-25T09:12:20.532Z,9.63
2018-05-25T09:14:49.615Z,9.47
2018-05-25T09:17:17.933Z,8.70
2018-05-25T09:19:46.252Z,8.77
2018-05-25T09:22:14.641Z,10.10
2018-05-25T09:24:42.921Z,8.47
2018-05-25T09:27:11.225Z,8.90
2018-05-25T09:29:40.365Z,8.50
2018-05-25T09:32:08.992Z,9.93
2018-05-25T09:34:38.077Z,8.17
2018-05-25T09:37:06.361Z,8.03
2018-05-25T09:39:34.674Z,9.07
2018-05-25T09:42:03.054Z,7.70
2018-05-25T09:44:31.302Z,9.10
2018-05-25T09:46:59.623Z,9.20
2018-05-25T09:49:28.138Z,9.77
2018-05-25T09:51:56.482Z,7.77
2018-05-25T09:54:24.998Z,7.33
2018-05-25T09:57:01.097Z,7.20
2018-05-25T09:59:30.200Z,8.40
2018-05-25T10:01:59.258Z,8.13
2018-05-25T10:04:27.630Z,7.47
2018-05-25T10:06:55.915Z,8.17
2018-05-25T10:09:24.229Z,9.00
2018-05-25T10:11:53.265Z,7.63
2018-05-25T10:14:21.564Z,8.43
2018-05-25T10:16:49.878Z,7.23
2018-05-25T10:19:18.165Z,9.10
2018-05-25T10:21:46.526Z,8.00
2018-05-25T10:24:15.646Z,11.03
2018-05-25T10:26:43.940Z,8.90
2018-05-25T10:29:12.461Z,7.77
2018-05-25T10:31:40.792Z,7.80
2018-05-25T10:34:09.197Z,8.77
2018-05-25T10:36:37.546Z,7.97
2018-05-25T10:39:06.765Z,7.90
2018-05-25T10:41:35.132Z,7.83
2018-05-25T10:44:03.563Z,8.53
2018-05-25T10:46:32.014Z,6.77
2018-05-25T10:49:00.288Z,7.57
2018-05-25T10:51:28.585Z,6.17
2018-05-25T10:53:56.912Z,6.17
2018-05-25T10:56:25.212Z,6.53
2018-05-25T10:58:53.543Z,6.20
2018-05-25T11:01:22.718Z,8.00
2018-05-25T11:03:51.048Z,8.30
2018-05-25T11:06:19.341Z,7.13
2018-05-25T11:08:47.647Z,6.77
2018-05-25T11:11:16.071Z,8.57
2018-05-25T11:13:44.381Z,7.20
2018-05-25T11:16:12.665Z,7.27
2018-05-25T11:18:41.017Z,6.47
2018-05-25T11:21:09.290Z,7.00
2018-05-25T11:23:37.674Z,10.30
2018-05-25T11:26:06.021Z,7.70
2018-05-25T11:28:35.117Z,9.07
2018-05-25T11:31:04.195Z,7.47
2018-05-25T11:33:32.476Z,6.87
2018-05-25T11:36:00.818Z,7.23
2018-05-25T11:38:29.138Z,6.83
2018-05-25T11:40:57.434Z,7.03
2018-05-25T11:43:26.524Z,6.67
2018-05-25T11:45:55.563Z,9.33
2018-05-25T11:48:23.857Z,9.57
2018-05-25T11:50:52.156Z,10.50
2018-05-25T11:53:20.918Z,6.87
2018-05-25T11:55:49.203Z,8.30
2018-05-25T11:58:17.530Z,7.27
2018-05-25T12:00:45.836Z,7.67
2018-05-25T12:03:14.164Z,7.03
2018-05-25T12:05:43.234Z,8.30
2018-05-25T12:08:11.509Z,8.67
2018-05-25T12:10:39.839Z,8.73
2018-05-25T12:13:08.978Z,8.17
2018-05-25T12:15:37.285Z,9.27
2018-05-25T12:18:05.644Z,8.97
2018-05-25T12:20:34.065Z,7.70
2018-05-25T12:23:03.127Z,8.20
2018-05-25T12:25:32.962Z,9.47
2018-05-25T12:28:02.082Z,10.17
2018-05-25T12:30:30.414Z,10.93
2018-05-25T12:32:58.724Z,11.33
2018-05-25T12:35:27.015Z,12.80
2018-05-25T12:37:55.334Z,13.07
2018-05-25T12:40:23.954Z,13.20
2018-05-25T12:42:53.045Z,10.37
2018-05-25T12:45:21.344Z,11.00
2018-05-25T12:47:49.680Z,10.77
2018-05-25T12:50:18.023Z,10.67
2018-05-25T12:52:46.440Z,10.10
2018-05-25T12:55:14.739Z,11.90
2018-05-25T12:57:43.050Z,10.10
2018-05-25T13:00:11.486Z,11.77
2018-05-25T13:02:39.811Z,11.87
2018-05-25T13:05:08.097Z,10.57
2018-05-25T13:07:36.443Z,10.70
2018-05-25T13:10:05.490Z,10.00
2018-05-25T13:12:33.789Z,11.23
2018-05-25T13:15:02.139Z,12.17
2018-05-25T13:17:30.436Z,9.13
2018-05-25T13:19:59.575Z,9.97
2018-05-25T13:22:28.677Z,8.70
2018-05-25T13:24:57.029Z,9.20
2018-05-25T13:27:25.390Z,7.37
2018-05-25T13:29:54.563Z,9.97
2018-05-25T13:32:22.887Z,9.87
2018-05-25T13:34:51.955Z,6.80
2018-05-25T13:37:20.262Z,7.60
2018-05-25T13:39:49.312Z,6.70
2018-05-25T13:42:17.613Z,7.83
2018-05-25T13:44:45.933Z,6.40
2018-05-25T13:47:14.230Z,8.47
2018-05-25T13:49:42.721Z,10.10
2018-05-25T13:52:11.011Z,7.57
2018-05-25T13:54:39.339Z,7.13
2018-05-25T13:57:07.634Z,9.43
2018-05-25T13:59:36.096Z,10.13
2018-05-25T14:02:05.135Z,14.33
2018-05-25T14:04:33.526Z,9.33
2018-05-25T14:07:01.962Z,7.53
2018-05-25T14:09:31.440Z,8.30
2018-05-25T14:11:59.849Z,7.83
2018-05-25T14:14:28.244Z,6.93
2018-05-25T14:16:56.568Z,7.97
2018-05-25T14:19:24.879Z,8.13
2018-05-25T14:21:53.903Z,6.50
2018-05-25T14:24:22.180Z,6.83
2018-05-25T14:26:50.506Z,7.57
2018-05-25T14:29:19.601Z,7.50
2018-05-25T14:31:48.653Z,6.10
2018-05-25T14:34:17.029Z,6.93
2018-05-25T14:36:45.325Z,6.37
2018-05-25T14:39:13.691Z,10.83
2018-05-25T14:41:42.017Z,6.47
2018-05-25T14:44:11.105Z,7.10
2018-05-25T14:46:40.205Z,6.73
2018-05-25T14:49:08.551Z,7.47
2018-05-25T14:51:36.864Z,6.80
2018-05-25T14:54:05.897Z,6.90
2018-05-25T14:56:34.425Z,6.73
2018-05-25T14:59:03.531Z,6.47
2018-05-25T15:01:31.855Z,7.80
2018-05-25T15:04:00.155Z,10.23
2018-05-25T15:06:28.438Z,7.40
2018-05-25T15:08:56.723Z,9.67
2018-05-25T15:11:25.039Z,7.57
2018-05-25T15:13:53.358Z,9.53
2018-05-25T15:16:21.661Z,8.53
2018-05-25T15:18:49.991Z,8.97
2018-05-25T15:21:18.409Z,11.43
2018-05-25T15:23:47.453Z,8.03
2018-05-25T15:26:15.757Z,8.27
2018-05-25T15:28:44.073Z,9.07
2018-05-25T15:31:12.422Z,11.37
2018-05-25T15:33:40.746Z,7.90
2018-05-25T15:36:09.793Z,8.07
2018-05-25T15:38:38.376Z,8.90
2018-05-25T15:41:06.938Z,8.20
2018-05-25T15:43:35.257Z,9.57
2018-05-25T15:46:03.584Z,9.10
2018-05-25T15:48:31.902Z,9.60
2018-05-25T15:51:00.263Z,8.83
2018-05-25T15:53:28.624Z,10.40
2018-05-25T15:55:56.925Z,7.40
2018-05-25T15:58:25.204Z,6.70
2018-05-25T16:00:53.475Z,7.57
2018-05-25T16:03:21.849Z,6.83
2018-05-25T16:05:50.133Z,8.40
2018-05-25T16:08:18.457Z,6.77
2018-05-25T16:10:46.772Z,7.50
2018-05-25T16:13:15.074Z,7.00
2018-05-25T16:15:43.401Z,8.03
2018-05-25T16:18:12.488Z,7.73
2018-05-25T16:20:40.998Z,10.77
2018-05-25T16:23:09.289Z,9.07
2018-05-25T16:25:37.607Z,8.97
2018-05-25T16:28:05.932Z,7.60
2018-05-25T16:30:34.229Z,8.20
2018-05-25T16:33:02.534Z,7.50
2018-05-25T16:35:30.931Z,8.17
2018-05-25T16:37:59.212Z,10.03
2018-05-25T16:40:27.547Z,9.53
2018-05-25T16:42:55.865Z,7.27
2018-05-25T16:45:24.175Z,7.73
2018-05-25T16:47:53.240Z,8.13
2018-05-25T16:50:21.565Z,8.77
2018-05-25T16:52:49.970Z,9.73
2018-05-25T16:55:18.256Z,8.60
2018-05-25T16:57:46.581Z,10.53
2018-05-25T17:00:14.930Z,10.57
2018-05-25T17:02:43.355Z,8.93
2018-05-25T17:05:11.756Z,10.03
2018-05-25T17:07:40.046Z,9.37
2018-05-25T17:10:08.396Z,11.03
2018-05-25T17:12:36.710Z,10.00
2018-05-25T17:15:05.005Z,9.30
2018-05-25T17:17:34.056Z,9.53
2018-05-25T17:20:02.360Z,9.97
2018-05-25T17:22:30.696Z,11.03
2018-05-25T17:27:33.842Z,8.63
2018-05-25T17:30:02.160Z,8.00
2018-05-25T17:32:31.220Z,9.43
2018-05-25T17:34:59.527Z,8.30
2018-05-25T17:37:28.586Z,7.97
2018-05-25T17:39:56.965Z,7.90
2018-05-25T17:42:25.284Z,10.57
2018-05-25T17:44:54.341Z,9.20
2018-05-25T17:47:22.668Z,7.50
2018-05-25T17:49:51.048Z,7.47
2018-05-25T17:52:19.381Z,7.30
2018-05-25T17:54:47.861Z,8.03
2018-05-25T17:57:16.177Z,8.63
2018-05-25T17:59:45.258Z,7.23
2018-05-25T18:02:13.545Z,8.70
2018-05-25T18:04:42.632Z,9.90
2018-05-25T18:07:10.965Z,8.87
2018-05-25T18:09:39.263Z,9.37
2018-05-25T18:12:07.603Z,10.07
2018-05-25T18:14:35.886Z,7.07
2018-05-25T18:17:04.230Z,7.17
2018-05-25T18:19:33.285Z,8.73
2018-05-25T18:22:02.347Z,8.87
2018-05-25T18:24:30.661Z,8.03
2018-05-25T18:26:58.972Z,8.17
2018-05-25T18:29:28.009Z,12.53
2018-05-25T18:31:56.272Z,8.83
2018-05-25T18:34:24.630Z,9.27
2018-05-25T18:36:53.741Z,10.13
2018-05-25T18:39:22.015Z,11.60
2018-05-25T18:41:50.348Z,11.13
2018-05-25T18:44:19.624Z,8.17
2018-05-25T18:46:47.897Z,13.73
2018-05-25T18:49:16.228Z,8.20
2018-05-25T18:51:46.044Z,8.60
2018-05-25T18:54:32.045Z,10.80
2018-05-25T18:57:00.318Z,8.93
2018-05-25T18:59:29.395Z,8.13
2018-05-25T19:01:57.718Z,10.30
2018-05-25T19:04:26.041Z,12.33
2018-05-25T19:06:54.667Z,7.87
2018-05-25T19:09:23.017Z,8.70
2018-05-25T19:11:51.313Z,8.83
2018-05-25T19:14:19.617Z,9.23
2018-05-25T19:16:47.903Z,8.80
2018-05-25T19:21:50.012Z,9.47
2018-05-25T19:24:18.312Z,9.17
2018-05-25T19:26:47.433Z,12.10
2018-05-25T19:29:15.702Z,10.60
2018-05-25T19:31:44.742Z,8.13
2018-05-25T19:34:13.833Z,12.67
2018-05-25T19:36:42.173Z,11.47
2018-05-25T19:39:10.480Z,12.90
2018-05-25T19:41:38.804Z,11.47
2018-05-25T19:44:07.158Z,9.37
2018-05-25T19:46:35.456Z,11.20
2018-05-25T19:49:03.775Z,10.07
2018-05-25T19:51:32.107Z,18.73
2018-05-25T19:54:00.439Z,15.47
2018-05-25T19:56:28.775Z,13.07
2018-05-25T19:58:57.184Z,12.13
2018-05-25T20:01:25.481Z,10.53
2018-05-25T20:03:53.811Z,11.67
2018-05-25T20:06:22.161Z,10.70
2018-05-25T20:08:50.482Z,12.83
2018-05-25T20:11:19.614Z,11.00
2018-05-25T20:13:47.900Z,11.03
2018-05-25T20:16:16.287Z,8.93
2018-05-25T20:18:44.559Z,10.70
2018-05-25T20:21:12.926Z,10.20
2018-05-25T20:23:41.325Z,10.77
2018-05-25T20:26:09.636Z,13.63
2018-05-25T20:28:37.937Z,10.43
2018-05-25T20:31:06.388Z,12.47
2018-05-25T20:33:34.735Z,11.43
2018-05-25T20:36:03.067Z,14.33
2018-05-25T20:38:32.146Z,13.07
2018-05-25T20:41:00.898Z,13.67
2018-05-25T20:43:29.228Z,10.87
2018-05-25T20:45:57.667Z,11.43
2018-05-25T20:48:25.985Z,12.60
2018-05-25T20:50:55.067Z,14.50
2018-05-25T20:53:23.417Z,13.57
2018-05-25T20:55:51.709Z,13.73
2018-05-25T20:58:20.940Z,17.93
2018-05-25T21:00:49.254Z,13.63
2018-05-25T21:03:17.575Z,16.30
2018-05-25T21:05:45.893Z,12.30
2018-05-25T21:08:14.191Z,18.97
2018-05-25T21:10:42.522Z,14.57
2018-05-25T21:13:11.601Z,15.70
2018-05-25T21:15:39.930Z,13.70
2018-05-25T21:18:08.274Z,13.47
2018-05-25T21:20:37.341Z,15.57
2018-05-25T21:23:05.943Z,13.90
2018-05-25T21:25:34.996Z,16.73
2018-05-25T21:28:03.583Z,16.20
2018-05-25T21:30:31.906Z,14.23
2018-05-25T21:33:00.959Z,12.57
2018-05-25T21:35:29.253Z,12.03
2018-05-25T21:37:57.578Z,13.27
2018-05-25T21:40:25.885Z,12.87
2018-05-25T21:42:54.219Z,14.83
2018-05-25T21:45:23.273Z,15.97
2018-05-25T21:50:26.486Z,15.13
2018-05-25T21:52:54.821Z,20.23
2018-05-25T21:55:23.128Z,15.30
2018-05-25T21:57:51.450Z,15.40
2018-05-25T22:00:20.510Z,16.80
2018-05-25T22:02:48.912Z,14.87
2018-05-25T22:05:17.242Z,16.13
2018-05-25T22:07:45.570Z,18.63
2018-05-25T22:10:13.904Z,16.73
2018-05-25T22:12:42.249Z,16.33
2018-05-25T22:17:45.840Z,15.60
2018-05-25T22:20:15.104Z,16.20
2018-05-25T22:22:43.579Z,16.10
2018-05-25T22:25:12.081Z,16.00
2018-05-25T22:27:40.370Z,16.83
2018-05-25T22:30:08.846Z,17.33
2018-05-25T22:32:37.195Z,17.40
2018-05-25T22:35:05.489Z,16.93
2018-05-25T22:37:33.846Z,17.53
2018-05-25T22:40:02.194Z,18.67
2018-05-25T22:42:48.915Z,18.33
2018-05-25T22:45:35.054Z,18.20
2018-05-25T22:48:22.050Z,19.33
2018-05-25T22:51:08.073Z,18.03
2018-05-25T22:53:41.190Z,17.40
2018-05-25T22:56:09.492Z,17.67
2018-05-25T22:58:37.849Z,18.80
2018-05-25T23:01:09.045Z,19.07
2018-05-25T23:03:37.326Z,18.50
2018-05-25T23:06:05.630Z,18.40
2018-05-25T23:08:33.937Z,18.10
2018-05-25T23:11:03.046Z,17.23
2018-05-25T23:13:32.144Z,17.27
2018-05-25T23:16:00.438Z,18.03
2018-05-25T23:18:28.768Z,18.63
2018-05-25T23:20:57.072Z,17.63
2018-05-25T23:23:26.206Z,18.27
2018-05-25T23:25:54.519Z,18.43
2018-05-25T23:28:22.840Z,16.87
2018-05-25T23:30:51.148Z,19.97
2018-05-25T23:33:19.496Z,18.33
2018-05-25T23:35:47.828Z,17.60
2018-05-25T23:38:16.655Z,18.40
2018-05-25T23:40:44.957Z,18.60
2018-05-25T23:43:13.285Z,21.43
2018-05-25T23:45:42.376Z,21.40
2018-05-25T23:48:10.678Z,21.60
2018-05-25T23:50:38.964Z,20.23
2018-05-25T23:53:07.260Z,19.60
2018-05-25T23:55:35.586Z,19.20
2018-05-25T23:58:03.920Z,18.60
